sensor_id;sensor_type;location;lat;lon;timestamp;temperature;humidity
7686;DHT22;3885;51.474;-2.576;2023-07-29T00:01:12;16.60;99.90
7686;DHT22;3885;51.474;-2.576;2023-07-29T00:03:38;16.60;99.90
7686;DHT22;3885;51.474;-2.576;2023-07-29T00:06:06;16.60;99.90
7686;DHT22;3885;51.474;-2.576;2023-07-29T00:08:33;16.60;99.90
7686;DHT22;3885;51.474;-2.576;2023-07-29T00:11:00;16.60;99.90
7686;DHT22;3885;51.474;-2.576;2023-07-29T00:13:28;16.60;99.90
7686;DHT22;3885;51.474;-2.576;2023-07-29T00:15:55;16.60;99.90
7686;DHT22;3885;51.474;-2.576;2023-07-29T00:18:22;16.60;99.90
7686;DHT22;3885;51.474;-2.576;2023-07-29T00:20:49;16.50;99.90
7686;DHT22;3885;51.474;-2.576;2023-07-29T00:23:17;16.50;99.90
7686;DHT22;3885;51.474;-2.576;2023-07-29T00:25:45;16.60;99.90
7686;DHT22;3885;51.474;-2.576;2023-07-29T00:28:12;16.60;99.90
7686;DHT22;3885;51.474;-2.576;2023-07-29T00:30:40;16.60;99.90
7686;DHT22;3885;51.474;-2.576;2023-07-29T00:33:07;16.60;99.90
7686;DHT22;3885;51.474;-2.576;2023-07-29T00:35:34;16.60;99.90
7686;DHT22;3885;51.474;-2.576;2023-07-29T00:38:01;16.50;99.90
7686;DHT22;3885;51.474;-2.576;2023-07-29T00:40:29;16.50;99.90
7686;DHT22;3885;51.474;-2.576;2023-07-29T00:42:56;16.50;99.90
7686;DHT22;3885;51.474;-2.576;2023-07-29T00:45:24;16.50;99.90
7686;DHT22;3885;51.474;-2.576;2023-07-29T00:47:53;16.60;99.90
7686;DHT22;3885;51.474;-2.576;2023-07-29T00:50:20;16.50;99.90
7686;DHT22;3885;51.474;-2.576;2023-07-29T00:52:48;16.50;99.90
7686;DHT22;3885;51.474;-2.576;2023-07-29T00:55:16;16.50;99.90
7686;DHT22;3885;51.474;-2.576;2023-07-29T00:57:43;16.50;99.90
7686;DHT22;3885;51.474;-2.576;2023-07-29T01:00:14;16.50;99.90
7686;DHT22;3885;51.474;-2.576;2023-07-29T01:02:42;16.50;99.90
7686;DHT22;3885;51.474;-2.576;2023-07-29T01:05:12;16.40;99.90
7686;DHT22;3885;51.474;-2.576;2023-07-29T01:07:44;16.40;99.90
7686;DHT22;3885;51.474;-2.576;2023-07-29T01:10:19;16.50;99.90
7686;DHT22;3885;51.474;-2.576;2023-07-29T01:12:53;16.50;99.90
7686;DHT22;3885;51.474;-2.576;2023-07-29T01:15:24;16.50;99.90
7686;DHT22;3885;51.474;-2.576;2023-07-29T01:17:55;16.50;99.90
7686;DHT22;3885;51.474;-2.576;2023-07-29T01:20:25;16.50;99.90
7686;DHT22;3885;51.474;-2.576;2023-07-29T01:25:20;16.50;99.90
7686;DHT22;3885;51.474;-2.576;2023-07-29T01:27:48;16.50;99.90
7686;DHT22;3885;51.474;-2.576;2023-07-29T01:30:18;16.60;99.90
7686;DHT22;3885;51.474;-2.576;2023-07-29T01:32:50;16.50;99.90
7686;DHT22;3885;51.474;-2.576;2023-07-29T01:35:28;16.50;99.90
7686;DHT22;3885;51.474;-2.576;2023-07-29T01:38:06;16.60;99.90
7686;DHT22;3885;51.474;-2.576;2023-07-29T01:40:35;16.50;99.90
7686;DHT22;3885;51.474;-2.576;2023-07-29T01:43:02;16.60;99.90
7686;DHT22;3885;51.474;-2.576;2023-07-29T01:45:29;16.50;99.90
7686;DHT22;3885;51.474;-2.576;2023-07-29T01:48:01;16.50;99.90
7686;DHT22;3885;51.474;-2.576;2023-07-29T01:50:28;16.50;99.90
7686;DHT22;3885;51.474;-2.576;2023-07-29T01:52:54;16.60;99.90
7686;DHT22;3885;51.474;-2.576;2023-07-29T01:55:21;16.50;99.90
7686;DHT22;3885;51.474;-2.576;2023-07-29T01:57:50;16.60;99.90
7686;DHT22;3885;51.474;-2.576;2023-07-29T02:00:18;16.50;99.90
7686;DHT22;3885;51.474;-2.576;2023-07-29T02:05:12;16.50;99.90
7686;DHT22;3885;51.474;-2.576;2023-07-29T02:10:07;16.40;99.90
7686;DHT22;3885;51.474;-2.576;2023-07-29T02:12:35;16.40;99.90
7686;DHT22;3885;51.474;-2.576;2023-07-29T02:15:03;16.40;99.90
7686;DHT22;3885;51.474;-2.576;2023-07-29T02:17:30;16.30;99.90
7686;DHT22;3885;51.474;-2.576;2023-07-29T02:19:57;16.30;99.90
7686;DHT22;3885;51.474;-2.576;2023-07-29T02:22:24;16.30;99.90
7686;DHT22;3885;51.474;-2.576;2023-07-29T02:24:51;16.30;99.90
7686;DHT22;3885;51.474;-2.576;2023-07-29T02:27:18;16.20;99.90
7686;DHT22;3885;51.474;-2.576;2023-07-29T02:29:45;16.30;99.90
7686;DHT22;3885;51.474;-2.576;2023-07-29T02:32:13;16.30;99.90
7686;DHT22;3885;51.474;-2.576;2023-07-29T02:34:40;16.30;99.90
7686;DHT22;3885;51.474;-2.576;2023-07-29T02:37:08;16.20;99.90
7686;DHT22;3885;51.474;-2.576;2023-07-29T02:39:34;16.20;99.90
7686;DHT22;3885;51.474;-2.576;2023-07-29T02:42:02;16.20;99.90
7686;DHT22;3885;51.474;-2.576;2023-07-29T02:44:28;16.20;99.90
7686;DHT22;3885;51.474;-2.576;2023-07-29T02:46:55;16.20;99.90
7686;DHT22;3885;51.474;-2.576;2023-07-29T02:49:24;16.20;99.90
7686;DHT22;3885;51.474;-2.576;2023-07-29T02:51:51;16.20;99.90
7686;DHT22;3885;51.474;-2.576;2023-07-29T02:54:18;18.10;99.90
7686;DHT22;3885;51.474;-2.576;2023-07-29T02:56:44;16.20;99.90
7686;DHT22;3885;51.474;-2.576;2023-07-29T02:59:11;16.20;99.90
7686;DHT22;3885;51.474;-2.576;2023-07-29T03:01:38;16.20;99.90
7686;DHT22;3885;51.474;-2.576;2023-07-29T03:04:05;16.30;99.90
7686;DHT22;3885;51.474;-2.576;2023-07-29T03:06:34;16.20;99.90
7686;DHT22;3885;51.474;-2.576;2023-07-29T03:09:00;16.20;99.90
7686;DHT22;3885;51.474;-2.576;2023-07-29T03:11:27;16.30;99.90
7686;DHT22;3885;51.474;-2.576;2023-07-29T03:13:54;16.20;99.90
7686;DHT22;3885;51.474;-2.576;2023-07-29T03:16:22;16.20;99.90
7686;DHT22;3885;51.474;-2.576;2023-07-29T03:18:49;16.20;99.90
7686;DHT22;3885;51.474;-2.576;2023-07-29T03:21:16;16.20;99.90
7686;DHT22;3885;51.474;-2.576;2023-07-29T03:23:44;16.20;99.90
7686;DHT22;3885;51.474;-2.576;2023-07-29T03:26:11;16.20;99.90
7686;DHT22;3885;51.474;-2.576;2023-07-29T03:28:40;16.20;99.90
7686;DHT22;3885;51.474;-2.576;2023-07-29T03:31:07;16.20;99.90
7686;DHT22;3885;51.474;-2.576;2023-07-29T03:33:34;16.20;99.90
7686;DHT22;3885;51.474;-2.576;2023-07-29T03:36:01;16.20;99.90
7686;DHT22;3885;51.474;-2.576;2023-07-29T03:38:28;16.20;99.90
7686;DHT22;3885;51.474;-2.576;2023-07-29T03:40:57;16.10;99.90
7686;DHT22;3885;51.474;-2.576;2023-07-29T03:43:24;16.20;99.90
7686;DHT22;3885;51.474;-2.576;2023-07-29T03:45:50;16.10;99.90
7686;DHT22;3885;51.474;-2.576;2023-07-29T03:48:17;16.10;99.90
7686;DHT22;3885;51.474;-2.576;2023-07-29T03:50:44;16.10;99.90
7686;DHT22;3885;51.474;-2.576;2023-07-29T03:53:11;16.10;99.90
7686;DHT22;3885;51.474;-2.576;2023-07-29T03:55:38;16.10;99.90
7686;DHT22;3885;51.474;-2.576;2023-07-29T03:58:06;16.10;99.90
7686;DHT22;3885;51.474;-2.576;2023-07-29T04:00:33;16.10;99.90
7686;DHT22;3885;51.474;-2.576;2023-07-29T04:03:00;16.20;99.90
7686;DHT22;3885;51.474;-2.576;2023-07-29T04:05:27;16.20;99.90
7686;DHT22;3885;51.474;-2.576;2023-07-29T04:07:54;16.20;99.90
7686;DHT22;3885;51.474;-2.576;2023-07-29T04:10:21;16.20;99.90
7686;DHT22;3885;51.474;-2.576;2023-07-29T04:12:48;16.20;99.90
7686;DHT22;3885;51.474;-2.576;2023-07-29T04:15:16;16.30;99.90
7686;DHT22;3885;51.474;-2.576;2023-07-29T04:17:43;16.20;99.90
7686;DHT22;3885;51.474;-2.576;2023-07-29T04:20:11;16.20;99.90
7686;DHT22;3885;51.474;-2.576;2023-07-29T04:22:38;16.20;99.90
7686;DHT22;3885;51.474;-2.576;2023-07-29T04:25:06;16.30;99.90
7686;DHT22;3885;51.474;-2.576;2023-07-29T04:27:33;16.20;99.90
7686;DHT22;3885;51.474;-2.576;2023-07-29T04:30:00;16.20;99.90
7686;DHT22;3885;51.474;-2.576;2023-07-29T04:32:28;16.10;99.90
7686;DHT22;3885;51.474;-2.576;2023-07-29T04:34:55;16.10;99.90
7686;DHT22;3885;51.474;-2.576;2023-07-29T04:37:22;16.20;99.90
7686;DHT22;3885;51.474;-2.576;2023-07-29T04:39:49;16.20;99.90
7686;DHT22;3885;51.474;-2.576;2023-07-29T04:42:16;16.10;99.90
7686;DHT22;3885;51.474;-2.576;2023-07-29T04:44:43;16.10;99.90
7686;DHT22;3885;51.474;-2.576;2023-07-29T04:47:10;16.00;99.90
7686;DHT22;3885;51.474;-2.576;2023-07-29T04:49:38;16.00;99.90
7686;DHT22;3885;51.474;-2.576;2023-07-29T04:52:05;16.10;99.90
7686;DHT22;3885;51.474;-2.576;2023-07-29T04:54:32;16.10;99.90
7686;DHT22;3885;51.474;-2.576;2023-07-29T04:56:59;16.10;99.90
7686;DHT22;3885;51.474;-2.576;2023-07-29T04:59:26;16.00;99.90
7686;DHT22;3885;51.474;-2.576;2023-07-29T05:01:53;16.00;99.90
7686;DHT22;3885;51.474;-2.576;2023-07-29T05:04:20;16.00;99.90
7686;DHT22;3885;51.474;-2.576;2023-07-29T05:06:48;16.00;99.90
7686;DHT22;3885;51.474;-2.576;2023-07-29T05:09:17;15.90;99.90
7686;DHT22;3885;51.474;-2.576;2023-07-29T05:11:45;15.90;99.90
7686;DHT22;3885;51.474;-2.576;2023-07-29T05:14:13;15.80;99.90
7686;DHT22;3885;51.474;-2.576;2023-07-29T05:16:40;15.90;99.90
7686;DHT22;3885;51.474;-2.576;2023-07-29T05:19:07;15.80;99.90
7686;DHT22;3885;51.474;-2.576;2023-07-29T05:21:34;15.80;99.90
7686;DHT22;3885;51.474;-2.576;2023-07-29T05:24:03;15.80;99.90
7686;DHT22;3885;51.474;-2.576;2023-07-29T05:26:30;15.80;99.90
7686;DHT22;3885;51.474;-2.576;2023-07-29T05:28:57;15.80;99.90
7686;DHT22;3885;51.474;-2.576;2023-07-29T05:31:24;15.80;99.90
7686;DHT22;3885;51.474;-2.576;2023-07-29T05:33:51;15.90;99.90
7686;DHT22;3885;51.474;-2.576;2023-07-29T05:36:17;15.80;99.90
7686;DHT22;3885;51.474;-2.576;2023-07-29T05:38:44;16.00;99.90
7686;DHT22;3885;51.474;-2.576;2023-07-29T05:41:13;16.00;99.90
7686;DHT22;3885;51.474;-2.576;2023-07-29T05:43:39;16.20;99.90
7686;DHT22;3885;51.474;-2.576;2023-07-29T05:46:08;16.20;99.90
7686;DHT22;3885;51.474;-2.576;2023-07-29T05:48:35;16.40;99.90
7686;DHT22;3885;51.474;-2.576;2023-07-29T05:51:02;16.40;99.90
7686;DHT22;3885;51.474;-2.576;2023-07-29T05:53:30;16.60;99.90
7686;DHT22;3885;51.474;-2.576;2023-07-29T05:55:57;16.60;99.90
7686;DHT22;3885;51.474;-2.576;2023-07-29T05:58:26;16.60;99.90
7686;DHT22;3885;51.474;-2.576;2023-07-29T06:00:52;16.60;99.90
7686;DHT22;3885;51.474;-2.576;2023-07-29T06:03:19;16.60;99.90
7686;DHT22;3885;51.474;-2.576;2023-07-29T06:05:46;16.60;99.90
7686;DHT22;3885;51.474;-2.576;2023-07-29T06:08:13;16.50;99.90
7686;DHT22;3885;51.474;-2.576;2023-07-29T06:10:40;16.50;99.90
7686;DHT22;3885;51.474;-2.576;2023-07-29T06:13:07;16.60;99.90
7686;DHT22;3885;51.474;-2.576;2023-07-29T06:15:35;16.60;99.90
7686;DHT22;3885;51.474;-2.576;2023-07-29T06:18:02;16.60;99.90
7686;DHT22;3885;51.474;-2.576;2023-07-29T06:20:29;16.60;99.90
7686;DHT22;3885;51.474;-2.576;2023-07-29T06:22:56;16.60;99.90
7686;DHT22;3885;51.474;-2.576;2023-07-29T06:25:23;16.60;99.90
7686;DHT22;3885;51.474;-2.576;2023-07-29T06:27:50;16.70;99.90
7686;DHT22;3885;51.474;-2.576;2023-07-29T06:30:17;16.90;99.90
7686;DHT22;3885;51.474;-2.576;2023-07-29T06:32:45;17.10;99.90
7686;DHT22;3885;51.474;-2.576;2023-07-29T06:35:12;17.20;99.90
7686;DHT22;3885;51.474;-2.576;2023-07-29T06:40:07;17.20;99.90
7686;DHT22;3885;51.474;-2.576;2023-07-29T06:42:34;17.30;99.90
7686;DHT22;3885;51.474;-2.576;2023-07-29T06:45:03;17.40;99.90
7686;DHT22;3885;51.474;-2.576;2023-07-29T06:47:30;17.40;99.90
7686;DHT22;3885;51.474;-2.576;2023-07-29T06:49:58;17.50;99.90
7686;DHT22;3885;51.474;-2.576;2023-07-29T06:52:26;17.60;99.90
7686;DHT22;3885;51.474;-2.576;2023-07-29T06:54:53;17.60;99.90
7686;DHT22;3885;51.474;-2.576;2023-07-29T06:57:19;17.50;99.90
7686;DHT22;3885;51.474;-2.576;2023-07-29T06:59:46;17.50;99.90
7686;DHT22;3885;51.474;-2.576;2023-07-29T07:02:13;17.40;99.90
7686;DHT22;3885;51.474;-2.576;2023-07-29T07:04:40;17.40;99.90
7686;DHT22;3885;51.474;-2.576;2023-07-29T07:07:09;17.50;99.90
7686;DHT22;3885;51.474;-2.576;2023-07-29T07:09:36;17.60;99.90
7686;DHT22;3885;51.474;-2.576;2023-07-29T07:12:03;17.70;99.90
7686;DHT22;3885;51.474;-2.576;2023-07-29T07:14:30;17.80;99.90
7686;DHT22;3885;51.474;-2.576;2023-07-29T07:16:57;17.80;99.90
7686;DHT22;3885;51.474;-2.576;2023-07-29T07:19:24;18.10;99.90
7686;DHT22;3885;51.474;-2.576;2023-07-29T07:21:51;18.10;99.90
7686;DHT22;3885;51.474;-2.576;2023-07-29T07:24:19;18.30;99.90
7686;DHT22;3885;51.474;-2.576;2023-07-29T07:26:46;18.40;99.90
7686;DHT22;3885;51.474;-2.576;2023-07-29T07:29:13;18.50;99.90
7686;DHT22;3885;51.474;-2.576;2023-07-29T07:31:40;18.50;99.90
7686;DHT22;3885;51.474;-2.576;2023-07-29T07:34:07;18.50;99.90
7686;DHT22;3885;51.474;-2.576;2023-07-29T07:36:34;18.70;99.90
7686;DHT22;3885;51.474;-2.576;2023-07-29T07:39:01;18.80;99.90
7686;DHT22;3885;51.474;-2.576;2023-07-29T07:41:29;18.80;99.90
7686;DHT22;3885;51.474;-2.576;2023-07-29T07:43:56;19.00;99.90
7686;DHT22;3885;51.474;-2.576;2023-07-29T07:46:23;19.00;99.90
7686;DHT22;3885;51.474;-2.576;2023-07-29T07:48:50;19.00;99.90
7686;DHT22;3885;51.474;-2.576;2023-07-29T07:51:17;18.90;99.90
7686;DHT22;3885;51.474;-2.576;2023-07-29T07:53:44;18.90;99.90
7686;DHT22;3885;51.474;-2.576;2023-07-29T07:56:10;18.70;99.90
7686;DHT22;3885;51.474;-2.576;2023-07-29T07:58:39;18.70;99.90
7686;DHT22;3885;51.474;-2.576;2023-07-29T08:01:06;18.50;99.90
7686;DHT22;3885;51.474;-2.576;2023-07-29T08:03:33;18.30;99.90
7686;DHT22;3885;51.474;-2.576;2023-07-29T08:06:00;18.40;99.90
7686;DHT22;3885;51.474;-2.576;2023-07-29T08:08:28;18.30;99.90
7686;DHT22;3885;51.474;-2.576;2023-07-29T08:10:56;18.30;99.90
7686;DHT22;3885;51.474;-2.576;2023-07-29T08:13:23;18.30;99.90
7686;DHT22;3885;51.474;-2.576;2023-07-29T08:15:53;18.50;99.90
7686;DHT22;3885;51.474;-2.576;2023-07-29T08:18:20;19.00;99.90
7686;DHT22;3885;51.474;-2.576;2023-07-29T08:20:54;19.00;99.90
7686;DHT22;3885;51.474;-2.576;2023-07-29T08:23:24;18.60;99.90
7686;DHT22;3885;51.474;-2.576;2023-07-29T08:25:52;18.50;99.90
7686;DHT22;3885;51.474;-2.576;2023-07-29T08:28:21;18.40;99.90
7686;DHT22;3885;51.474;-2.576;2023-07-29T08:30:48;18.10;99.90
7686;DHT22;3885;51.474;-2.576;2023-07-29T08:33:17;18.00;99.90
7686;DHT22;3885;51.474;-2.576;2023-07-29T08:35:43;18.00;99.90
7686;DHT22;3885;51.474;-2.576;2023-07-29T08:38:10;18.00;99.90
7686;DHT22;3885;51.474;-2.576;2023-07-29T08:40:40;18.10;99.90
7686;DHT22;3885;51.474;-2.576;2023-07-29T08:43:09;18.20;99.90
7686;DHT22;3885;51.474;-2.576;2023-07-29T08:45:38;18.10;99.90
7686;DHT22;3885;51.474;-2.576;2023-07-29T08:48:08;18.30;99.90
7686;DHT22;3885;51.474;-2.576;2023-07-29T08:50:37;18.20;99.90
7686;DHT22;3885;51.474;-2.576;2023-07-29T08:53:05;18.10;99.90
7686;DHT22;3885;51.474;-2.576;2023-07-29T08:55:32;18.10;99.90
7686;DHT22;3885;51.474;-2.576;2023-07-29T08:57:59;18.20;99.90
7686;DHT22;3885;51.474;-2.576;2023-07-29T09:00:27;18.20;99.90
7686;DHT22;3885;51.474;-2.576;2023-07-29T09:02:54;18.20;99.90
7686;DHT22;3885;51.474;-2.576;2023-07-29T09:05:23;18.20;99.90
7686;DHT22;3885;51.474;-2.576;2023-07-29T09:07:51;18.40;99.90
7686;DHT22;3885;51.474;-2.576;2023-07-29T09:10:21;18.60;99.90
7686;DHT22;3885;51.474;-2.576;2023-07-29T09:12:49;18.60;99.90
7686;DHT22;3885;51.474;-2.576;2023-07-29T09:15:27;18.60;99.90
7686;DHT22;3885;51.474;-2.576;2023-07-29T09:17:55;18.40;99.90
7686;DHT22;3885;51.474;-2.576;2023-07-29T09:20:25;18.30;99.90
7686;DHT22;3885;51.474;-2.576;2023-07-29T09:22:57;18.30;99.90
7686;DHT22;3885;51.474;-2.576;2023-07-29T09:25:25;18.20;99.90
7686;DHT22;3885;51.474;-2.576;2023-07-29T09:27:52;18.20;99.90
7686;DHT22;3885;51.474;-2.576;2023-07-29T09:30:19;18.20;99.90
7686;DHT22;3885;51.474;-2.576;2023-07-29T09:32:46;18.10;99.90
7686;DHT22;3885;51.474;-2.576;2023-07-29T09:35:13;18.10;99.90
7686;DHT22;3885;51.474;-2.576;2023-07-29T09:37:40;18.20;99.90
7686;DHT22;3885;51.474;-2.576;2023-07-29T09:40:14;18.20;99.90
7686;DHT22;3885;51.474;-2.576;2023-07-29T09:42:48;18.20;99.90
7686;DHT22;3885;51.474;-2.576;2023-07-29T09:45:20;18.50;99.90
7686;DHT22;3885;51.474;-2.576;2023-07-29T09:47:47;18.60;99.90
7686;DHT22;3885;51.474;-2.576;2023-07-29T09:50:14;18.70;99.90
7686;DHT22;3885;51.474;-2.576;2023-07-29T09:52:41;18.80;99.90
7686;DHT22;3885;51.474;-2.576;2023-07-29T09:55:12;19.20;99.90
7686;DHT22;3885;51.474;-2.576;2023-07-29T09:57:40;19.30;99.90
7686;DHT22;3885;51.474;-2.576;2023-07-29T10:00:10;19.30;99.90
7686;DHT22;3885;51.474;-2.576;2023-07-29T10:02:38;19.40;99.90
7686;DHT22;3885;51.474;-2.576;2023-07-29T10:05:06;19.50;99.90
7686;DHT22;3885;51.474;-2.576;2023-07-29T10:10:02;19.90;99.90
7686;DHT22;3885;51.474;-2.576;2023-07-29T10:12:33;20.00;99.90
7686;DHT22;3885;51.474;-2.576;2023-07-29T10:17:27;20.10;99.90
7686;DHT22;3885;51.474;-2.576;2023-07-29T10:19:56;19.90;99.90
7686;DHT22;3885;51.474;-2.576;2023-07-29T10:22:26;20.00;99.90
7686;DHT22;3885;51.474;-2.576;2023-07-29T10:24:59;19.90;99.90
7686;DHT22;3885;51.474;-2.576;2023-07-29T10:27:32;19.90;99.90
7686;DHT22;3885;51.474;-2.576;2023-07-29T10:30:02;20.10;99.90
7686;DHT22;3885;51.474;-2.576;2023-07-29T10:32:30;20.10;99.90
7686;DHT22;3885;51.474;-2.576;2023-07-29T10:34:58;20.10;99.90
7686;DHT22;3885;51.474;-2.576;2023-07-29T10:37:25;20.20;99.90
7686;DHT22;3885;51.474;-2.576;2023-07-29T10:39:53;20.30;99.90
7686;DHT22;3885;51.474;-2.576;2023-07-29T10:42:20;20.20;99.90
7686;DHT22;3885;51.474;-2.576;2023-07-29T10:44:50;20.40;99.90
7686;DHT22;3885;51.474;-2.576;2023-07-29T10:47:20;20.50;99.90
7686;DHT22;3885;51.474;-2.576;2023-07-29T10:49:49;20.60;99.90
7686;DHT22;3885;51.474;-2.576;2023-07-29T10:52:29;20.70;99.90
7686;DHT22;3885;51.474;-2.576;2023-07-29T10:54:56;20.70;99.90
7686;DHT22;3885;51.474;-2.576;2023-07-29T10:57:31;20.80;99.90
7686;DHT22;3885;51.474;-2.576;2023-07-29T11:00:01;20.80;99.90
7686;DHT22;3885;51.474;-2.576;2023-07-29T11:02:31;20.50;99.90
7686;DHT22;3885;51.474;-2.576;2023-07-29T11:04:59;20.50;99.90
7686;DHT22;3885;51.474;-2.576;2023-07-29T11:07:26;20.50;99.90
7686;DHT22;3885;51.474;-2.576;2023-07-29T11:09:56;20.60;99.90
7686;DHT22;3885;51.474;-2.576;2023-07-29T11:12:36;20.30;99.90
7686;DHT22;3885;51.474;-2.576;2023-07-29T11:15:13;20.60;99.90
7686;DHT22;3885;51.474;-2.576;2023-07-29T11:17:41;20.60;99.90
7686;DHT22;3885;51.474;-2.576;2023-07-29T11:20:09;21.20;99.90
7686;DHT22;3885;51.474;-2.576;2023-07-29T11:22:36;21.20;99.90
7686;DHT22;3885;51.474;-2.576;2023-07-29T11:25:04;21.30;99.90
7686;DHT22;3885;51.474;-2.576;2023-07-29T11:27:31;21.40;99.90
7686;DHT22;3885;51.474;-2.576;2023-07-29T11:29:59;21.40;99.90
7686;DHT22;3885;51.474;-2.576;2023-07-29T11:32:29;21.30;99.90
7686;DHT22;3885;51.474;-2.576;2023-07-29T11:34:56;21.40;99.90
7686;DHT22;3885;51.474;-2.576;2023-07-29T11:37:23;21.30;99.90
7686;DHT22;3885;51.474;-2.576;2023-07-29T11:39:49;21.20;99.90
7686;DHT22;3885;51.474;-2.576;2023-07-29T11:42:16;21.20;99.90
7686;DHT22;3885;51.474;-2.576;2023-07-29T11:44:43;21.20;99.90
7686;DHT22;3885;51.474;-2.576;2023-07-29T11:47:11;21.50;99.90
7686;DHT22;3885;51.474;-2.576;2023-07-29T11:49:40;21.30;99.90
7686;DHT22;3885;51.474;-2.576;2023-07-29T11:52:09;21.30;99.90
7686;DHT22;3885;51.474;-2.576;2023-07-29T11:54:36;21.40;99.90
7686;DHT22;3885;51.474;-2.576;2023-07-29T11:57:04;21.60;99.90
7686;DHT22;3885;51.474;-2.576;2023-07-29T11:59:33;21.60;99.90
7686;DHT22;3885;51.474;-2.576;2023-07-29T12:02:01;21.70;99.90
7686;DHT22;3885;51.474;-2.576;2023-07-29T12:04:28;21.70;99.90
7686;DHT22;3885;51.474;-2.576;2023-07-29T12:06:57;22.10;99.90
7686;DHT22;3885;51.474;-2.576;2023-07-29T12:09:25;22.10;99.90
7686;DHT22;3885;51.474;-2.576;2023-07-29T12:11:53;22.10;99.90
7686;DHT22;3885;51.474;-2.576;2023-07-29T12:14:20;22.20;99.90
7686;DHT22;3885;51.474;-2.576;2023-07-29T12:16:48;22.20;99.90
7686;DHT22;3885;51.474;-2.576;2023-07-29T12:19:17;22.30;99.90
7686;DHT22;3885;51.474;-2.576;2023-07-29T12:21:44;22.20;99.90
7686;DHT22;3885;51.474;-2.576;2023-07-29T12:24:13;22.10;99.90
7686;DHT22;3885;51.474;-2.576;2023-07-29T12:26:41;21.80;99.90
7686;DHT22;3885;51.474;-2.576;2023-07-29T12:29:16;21.80;99.90
7686;DHT22;3885;51.474;-2.576;2023-07-29T12:31:45;21.70;99.90
7686;DHT22;3885;51.474;-2.576;2023-07-29T12:34:18;21.70;99.90
7686;DHT22;3885;51.474;-2.576;2023-07-29T12:36:46;21.70;99.90
7686;DHT22;3885;51.474;-2.576;2023-07-29T12:39:18;21.70;99.90
7686;DHT22;3885;51.474;-2.576;2023-07-29T12:44:12;22.10;99.90
7686;DHT22;3885;51.474;-2.576;2023-07-29T12:46:40;22.10;99.90
7686;DHT22;3885;51.474;-2.576;2023-07-29T12:49:07;22.30;99.90
7686;DHT22;3885;51.474;-2.576;2023-07-29T12:51:34;22.30;99.90
7686;DHT22;3885;51.474;-2.576;2023-07-29T12:54:01;22.40;99.90
7686;DHT22;3885;51.474;-2.576;2023-07-29T12:56:30;22.20;99.90
7686;DHT22;3885;51.474;-2.576;2023-07-29T12:58:57;22.20;99.90
7686;DHT22;3885;51.474;-2.576;2023-07-29T13:01:25;21.80;99.90
7686;DHT22;3885;51.474;-2.576;2023-07-29T13:03:52;21.80;99.90
7686;DHT22;3885;51.474;-2.576;2023-07-29T13:06:19;22.00;99.90
7686;DHT22;3885;51.474;-2.576;2023-07-29T13:08:47;22.00;99.90
7686;DHT22;3885;51.474;-2.576;2023-07-29T13:11:14;22.00;99.90
7686;DHT22;3885;51.474;-2.576;2023-07-29T13:13:43;22.00;99.90
7686;DHT22;3885;51.474;-2.576;2023-07-29T13:16:11;22.10;99.90
7686;DHT22;3885;51.474;-2.576;2023-07-29T13:18:38;22.10;99.90
7686;DHT22;3885;51.474;-2.576;2023-07-29T13:21:05;22.10;99.90
7686;DHT22;3885;51.474;-2.576;2023-07-29T13:28:26;21.60;99.90
7686;DHT22;3885;51.474;-2.576;2023-07-29T13:30:55;21.30;99.90
7686;DHT22;3885;51.474;-2.576;2023-07-29T13:33:21;20.90;99.90
7686;DHT22;3885;51.474;-2.576;2023-07-29T13:38:16;20.70;99.90
7686;DHT22;3885;51.474;-2.576;2023-07-29T13:40:43;20.90;99.90
7686;DHT22;3885;51.474;-2.576;2023-07-29T13:43:09;20.90;99.90
7686;DHT22;3885;51.474;-2.576;2023-07-29T13:48:05;21.10;99.90
7686;DHT22;3885;51.474;-2.576;2023-07-29T13:50:32;21.50;99.90
7686;DHT22;3885;51.474;-2.576;2023-07-29T13:52:59;21.60;99.90
7686;DHT22;3885;51.474;-2.576;2023-07-29T13:57:53;21.70;99.90
7686;DHT22;3885;51.474;-2.576;2023-07-29T14:00:20;21.60;99.90
7686;DHT22;3885;51.474;-2.576;2023-07-29T14:02:47;21.60;99.90
7686;DHT22;3885;51.474;-2.576;2023-07-29T14:05:16;21.30;99.90
7686;DHT22;3885;51.474;-2.576;2023-07-29T14:07:43;21.20;99.90
7686;DHT22;3885;51.474;-2.576;2023-07-29T14:10:10;21.30;99.90
7686;DHT22;3885;51.474;-2.576;2023-07-29T14:12:37;21.30;99.90
7686;DHT22;3885;51.474;-2.576;2023-07-29T14:15:04;21.50;99.90
7686;DHT22;3885;51.474;-2.576;2023-07-29T14:17:32;21.70;99.90
7686;DHT22;3885;51.474;-2.576;2023-07-29T14:19:59;21.60;99.90
7686;DHT22;3885;51.474;-2.576;2023-07-29T14:22:27;21.50;99.90
7686;DHT22;3885;51.474;-2.576;2023-07-29T14:24:54;21.50;99.90
7686;DHT22;3885;51.474;-2.576;2023-07-29T14:27:21;21.30;99.90
7686;DHT22;3885;51.474;-2.576;2023-07-29T14:29:47;21.20;99.90
7686;DHT22;3885;51.474;-2.576;2023-07-29T14:32:14;21.40;99.90
7686;DHT22;3885;51.474;-2.576;2023-07-29T14:34:41;21.50;99.90
7686;DHT22;3885;51.474;-2.576;2023-07-29T14:37:08;21.50;99.90
7686;DHT22;3885;51.474;-2.576;2023-07-29T14:39:36;21.60;99.90
7686;DHT22;3885;51.474;-2.576;2023-07-29T14:42:04;21.60;99.90
7686;DHT22;3885;51.474;-2.576;2023-07-29T14:44:32;21.80;99.90
7686;DHT22;3885;51.474;-2.576;2023-07-29T14:46:59;21.80;99.90
7686;DHT22;3885;51.474;-2.576;2023-07-29T14:49:26;22.00;99.90
7686;DHT22;3885;51.474;-2.576;2023-07-29T14:56:49;21.90;99.90
7686;DHT22;3885;51.474;-2.576;2023-07-29T14:59:16;21.80;99.90
7686;DHT22;3885;51.474;-2.576;2023-07-29T15:01:43;21.70;99.90
7686;DHT22;3885;51.474;-2.576;2023-07-29T15:04:10;21.40;99.90
7686;DHT22;3885;51.474;-2.576;2023-07-29T15:09:04;21.30;99.90
7686;DHT22;3885;51.474;-2.576;2023-07-29T15:11:32;21.50;99.90
7686;DHT22;3885;51.474;-2.576;2023-07-29T15:14:01;21.60;99.90
7686;DHT22;3885;51.474;-2.576;2023-07-29T15:16:29;21.70;99.90
7686;DHT22;3885;51.474;-2.576;2023-07-29T15:18:58;21.70;99.90
7686;DHT22;3885;51.474;-2.576;2023-07-29T15:21:25;21.70;99.90
7686;DHT22;3885;51.474;-2.576;2023-07-29T15:23:52;21.30;99.90
7686;DHT22;3885;51.474;-2.576;2023-07-29T15:26:19;21.20;99.90
7686;DHT22;3885;51.474;-2.576;2023-07-29T15:28:46;21.20;99.90
7686;DHT22;3885;51.474;-2.576;2023-07-29T15:31:14;21.20;99.90
7686;DHT22;3885;51.474;-2.576;2023-07-29T15:33:41;21.30;99.90
7686;DHT22;3885;51.474;-2.576;2023-07-29T15:36:08;21.30;99.90
7686;DHT22;3885;51.474;-2.576;2023-07-29T15:38:35;21.40;99.90
7686;DHT22;3885;51.474;-2.576;2023-07-29T15:41:02;21.40;99.90
7686;DHT22;3885;51.474;-2.576;2023-07-29T15:43:29;21.50;99.90
7686;DHT22;3885;51.474;-2.576;2023-07-29T15:45:56;21.20;99.90
7686;DHT22;3885;51.474;-2.576;2023-07-29T15:48:25;21.30;99.90
7686;DHT22;3885;51.474;-2.576;2023-07-29T15:50:52;21.30;99.90
7686;DHT22;3885;51.474;-2.576;2023-07-29T15:53:19;21.20;99.90
7686;DHT22;3885;51.474;-2.576;2023-07-29T15:55:45;21.10;99.90
7686;DHT22;3885;51.474;-2.576;2023-07-29T15:58:12;21.20;99.90
7686;DHT22;3885;51.474;-2.576;2023-07-29T16:00:39;21.30;99.90
7686;DHT22;3885;51.474;-2.576;2023-07-29T16:03:06;21.40;99.90
7686;DHT22;3885;51.474;-2.576;2023-07-29T16:05:35;21.40;99.90
7686;DHT22;3885;51.474;-2.576;2023-07-29T16:08:02;21.40;99.90
7686;DHT22;3885;51.474;-2.576;2023-07-29T16:10:29;21.40;99.90
7686;DHT22;3885;51.474;-2.576;2023-07-29T16:12:56;21.50;99.90
7686;DHT22;3885;51.474;-2.576;2023-07-29T16:15:23;21.50;99.90
7686;DHT22;3885;51.474;-2.576;2023-07-29T16:17:50;21.50;99.90
7686;DHT22;3885;51.474;-2.576;2023-07-29T16:22:47;21.50;99.90
7686;DHT22;3885;51.474;-2.576;2023-07-29T16:25:14;21.20;99.90
7686;DHT22;3885;51.474;-2.576;2023-07-29T16:27:41;21.00;99.90